Time;durP1;ratioP1;P1;durP2;ratioP2;P2;SDS_P1;SDS_P2;PMS_P1;PMS_P2;Temp;Humidity;BMP_temperature;BMP_pressure;BME280_temperature;BME280_humidity;BME280_pressure;Samples;Min_cycle;Max_cycle;Signal;HPM_P1;HPM_P2
2023/04/08 00:00:47;;;;;;;14.77;10.80;;;5.40;99.90;;;;;;5053805;28;20507;-67
2023/04/08 00:03:13;;;;;;;19.60;10.80;;;5.50;99.90;;;;;;5048307;28;20518;-68
2023/04/08 00:05:39;;;;;;;18.97;11.43;;;5.50;99.90;;;;;;5047036;28;20968;-68
2023/04/08 00:08:05;;;;;;;16.20;11.70;;;5.50;99.90;;;;;;5047288;28;20179;-69
2023/04/08 00:10:31;;;;;;;19.20;11.90;;;5.50;99.90;;;;;;5047162;28;20195;-68
2023/04/08 00:12:56;;;;;;;19.27;11.73;;;5.50;99.90;;;;;;5052270;28;20488;-69
2023/04/08 00:15:22;;;;;;;22.50;12.50;;;5.50;99.90;;;;;;5047936;28;20694;-69
2023/04/08 00:17:47;;;;;;;16.30;11.67;;;5.50;99.90;;;;;;5053527;28;20175;-69
2023/04/08 00:20:13;;;;;;;17.17;10.80;;;5.50;99.90;;;;;;5041601;28;20178;-68
2023/04/08 00:22:39;;;;;;;20.90;12.07;;;5.50;99.90;;;;;;5046519;28;20195;-69
2023/04/08 00:25:08;;;;;;;20.03;12.00;;;5.50;99.90;;;;;;5046005;28;20179;-69
2023/04/08 00:27:34;;;;;;;19.30;11.20;;;5.50;99.90;;;;;;5057547;28;20610;-68
2023/04/08 00:30:00;;;;;;;22.00;13.63;;;5.50;99.90;;;;;;5047132;28;20456;-69
2023/04/08 00:32:27;;;;;;;16.87;10.87;;;5.60;99.90;;;;;;5047260;28;20289;-69
2023/04/08 00:34:52;;;;;;;20.23;13.17;;;5.50;99.90;;;;;;5047229;28;20411;-68
2023/04/08 00:37:18;;;;;;;23.90;12.93;;;5.50;99.90;;;;;;5047409;28;20470;-70
2023/04/08 00:39:44;;;;;;;19.93;13.13;;;5.50;99.90;;;;;;5047575;28;20171;-68
2023/04/08 00:42:09;;;;;;;27.10;15.00;;;5.40;99.90;;;;;;5047697;28;20198;-68
2023/04/08 00:44:35;;;;;;;26.73;16.53;;;5.50;99.90;;;;;;5055005;28;20190;-69
2023/04/08 00:47:03;;;;;;;25.33;14.00;;;5.50;99.90;;;;;;5039773;28;20209;-68
2023/04/08 00:49:30;;;;;;;22.20;12.30;;;5.40;99.90;;;;;;5044383;28;20424;-68
2023/04/08 00:51:56;;;;;;;22.00;13.77;;;5.40;99.90;;;;;;5047029;28;20461;-68
2023/04/08 00:54:21;;;;;;;24.77;14.87;;;5.40;99.90;;;;;;5051506;28;20428;-68
2023/04/08 00:56:47;;;;;;;31.80;14.57;;;5.50;99.90;;;;;;5047972;28;20513;-70
2023/04/08 00:59:14;;;;;;;25.57;13.23;;;5.40;99.90;;;;;;5046268;28;20185;-69
2023/04/08 01:01:50;;;;;;;28.20;14.13;;;5.40;99.90;;;;;;5047785;28;20202;-70
2023/04/08 01:04:27;;;;;;;26.60;14.43;;;5.40;99.90;;;;;;5046474;28;20424;-68
2023/04/08 01:07:00;;;;;;;28.07;14.70;;;5.40;99.90;;;;;;5056748;28;20444;-68
2023/04/08 01:09:34;;;;;;;28.63;15.33;;;5.40;99.90;;;;;;5046846;28;20409;-68
2023/04/08 01:12:05;;;;;;;21.63;15.90;;;5.50;99.90;;;;;;5046348;28;20464;-68
2023/04/08 01:14:34;;;;;;;24.43;16.10;;;5.40;99.90;;;;;;5045309;28;20457;-69
2023/04/08 01:17:01;;;;;;;35.20;16.67;;;5.40;99.90;;;;;;5051035;28;20761;-68
2023/04/08 01:19:37;;;;;;;32.30;16.23;;;5.40;99.90;;;;;;5050779;28;20409;-68
2023/04/08 01:22:25;;;;;;;30.60;16.50;;;5.40;99.90;;;;;;5046894;28;20451;-70
2023/04/08 01:25:00;;;;;;;27.60;15.43;;;5.40;99.90;;;;;;5043492;28;20908;-69
2023/04/08 01:27:27;;;;;;;34.10;18.37;;;5.40;99.90;;;;;;5054849;28;20470;-71
2023/04/08 01:29:54;;;;;;;28.77;16.30;;;5.40;99.90;;;;;;5051261;28;20504;-69
2023/04/08 01:32:20;;;;;;;34.77;16.07;;;5.40;99.90;;;;;;5051098;28;20475;-70
2023/04/08 01:34:46;;;;;;;32.00;16.57;;;5.40;99.90;;;;;;5051193;28;20409;-69
2023/04/08 01:37:14;;;;;;;24.70;15.07;;;5.40;99.90;;;;;;5056183;28;20406;-73
2023/04/08 01:39:40;;;;;;;27.63;15.87;;;5.40;99.90;;;;;;5052966;28;20413;-70
2023/04/08 01:42:07;;;;;;;28.23;14.80;;;5.40;99.90;;;;;;5048331;28;20521;-68
2023/04/08 01:44:35;;;;;;;29.93;17.87;;;5.40;99.90;;;;;;5046149;28;20436;-68
2023/04/08 01:47:02;;;;;;;28.70;16.77;;;5.40;99.90;;;;;;5050627;28;20595;-68
2023/04/08 01:49:29;;;;;;;32.80;17.33;;;5.40;99.90;;;;;;5045629;28;20440;-68
2023/04/08 01:51:57;;;;;;;34.83;17.57;;;5.40;99.90;;;;;;5047627;28;20475;-67
2023/04/08 01:54:22;;;;;;;23.17;15.17;;;5.40;99.90;;;;;;5045784;28;20875;-67
2023/04/08 01:56:52;;;;;;;28.87;16.87;;;5.40;99.90;;;;;;5056263;28;20524;-67
2023/04/08 01:59:20;;;;;;;32.47;19.10;;;5.40;99.90;;;;;;5050856;28;20420;-67
2023/04/08 02:01:47;;;;;;;27.60;15.43;;;5.50;99.90;;;;;;5051942;28;20444;-68
2023/04/08 02:04:13;;;;;;;43.13;18.27;;;5.40;99.90;;;;;;5052069;28;20892;-69
2023/04/08 02:06:38;;;;;;;29.90;16.57;;;5.50;99.90;;;;;;5054021;28;20529;-68
2023/04/08 02:09:04;;;;;;;29.00;17.17;;;5.50;99.90;;;;;;5047689;28;20210;-68
2023/04/08 02:11:30;;;;;;;34.40;17.40;;;5.50;99.90;;;;;;5052754;28;20684;-68
2023/04/08 02:13:57;;;;;;;38.73;17.20;;;5.50;99.90;;;;;;5050038;28;20413;-69
2023/04/08 02:16:33;;;;;;;33.40;16.07;;;5.50;99.90;;;;;;5052509;28;20426;-68
2023/04/08 02:19:05;;;;;;;34.10;21.00;;;5.50;99.90;;;;;;5038697;28;20429;-68
2023/04/08 02:21:40;;;;;;;28.70;17.67;;;5.50;99.90;;;;;;5051021;28;20503;-68
2023/04/08 02:24:08;;;;;;;28.80;15.20;;;5.50;99.90;;;;;;5040397;28;20412;-68
2023/04/08 02:26:35;;;;;;;34.90;16.70;;;5.50;99.90;;;;;;5048962;28;20487;-67
2023/04/08 02:29:04;;;;;;;36.43;17.90;;;5.50;99.90;;;;;;5047860;28;20516;-68
2023/04/08 02:31:29;;;;;;;29.20;17.00;;;5.50;99.90;;;;;;5047923;28;20453;-67
2023/04/08 02:33:56;;;;;;;30.37;17.37;;;5.50;99.90;;;;;;5047385;28;20424;-68
2023/04/08 02:36:22;;;;;;;31.33;17.23;;;5.50;99.90;;;;;;5050537;28;20232;-67
2023/04/08 02:38:49;;;;;;;38.03;19.00;;;5.50;99.90;;;;;;5054595;28;20541;-67
2023/04/08 02:41:15;;;;;;;29.17;16.50;;;5.50;99.90;;;;;;5047723;28;20420;-68
2023/04/08 02:43:41;;;;;;;38.87;17.57;;;5.50;99.90;;;;;;5042124;28;20476;-68
2023/04/08 02:46:08;;;;;;;32.60;16.13;;;5.50;99.90;;;;;;5047391;28;20567;-68
2023/04/08 02:48:33;;;;;;;27.10;16.83;;;5.40;99.90;;;;;;5053817;28;20509;-68
2023/04/08 02:50:59;;;;;;;30.07;16.83;;;5.50;99.90;;;;;;5041314;28;20984;-68
2023/04/08 02:53:25;;;;;;;32.50;18.20;;;5.50;99.90;;;;;;5047534;28;20195;-68
2023/04/08 02:55:51;;;;;;;30.20;15.53;;;5.50;99.90;;;;;;5051999;28;20167;-68
2023/04/08 02:58:16;;;;;;;31.83;18.97;;;5.50;99.90;;;;;;5054982;28;20419;-68
2023/04/08 03:00:42;;;;;;;27.40;15.93;;;5.50;99.90;;;;;;5046374;28;20421;-67
2023/04/08 03:03:08;;;;;;;29.07;14.33;;;5.50;99.90;;;;;;5041680;28;20236;-68
2023/04/08 03:05:33;;;;;;;32.67;17.37;;;5.50;99.90;;;;;;5047296;28;20182;-68
2023/04/08 03:07:59;;;;;;;31.47;17.73;;;5.50;99.90;;;;;;5053557;28;20292;-68
2023/04/08 03:10:25;;;;;;;30.63;15.77;;;5.50;99.90;;;;;;5046883;28;20649;-68
2023/04/08 03:12:51;;;;;;;30.30;17.33;;;5.50;99.90;;;;;;5047359;28;20514;-67
2023/04/08 03:15:16;;;;;;;30.27;16.43;;;5.50;99.90;;;;;;5050258;28;20846;-68
2023/04/08 03:17:42;;;;;;;33.40;17.17;;;5.50;99.90;;;;;;5054462;28;21133;-67
2023/04/08 03:20:08;;;;;;;26.43;15.97;;;5.60;99.90;;;;;;5054452;28;20182;-68
2023/04/08 03:22:35;;;;;;;29.53;17.83;;;5.60;99.90;;;;;;5042558;28;20195;-68
2023/04/08 03:25:00;;;;;;;38.03;16.47;;;5.60;99.90;;;;;;5046578;28;20186;-68
2023/04/08 03:27:26;;;;;;;27.03;17.50;;;5.60;99.90;;;;;;5045564;28;20429;-68
2023/04/08 03:29:52;;;;;;;37.63;18.97;;;5.60;99.90;;;;;;5046156;28;20182;-68
2023/04/08 03:32:18;;;;;;;32.27;17.30;;;5.60;99.90;;;;;;5048596;28;20214;-68
2023/04/08 03:34:44;;;;;;;29.43;15.97;;;5.60;99.90;;;;;;5045953;28;20228;-67
2023/04/08 03:37:09;;;;;;;37.47;19.83;;;5.50;99.90;;;;;;5046414;28;20591;-68
2023/04/08 03:39:35;;;;;;;28.87;18.00;;;5.50;99.90;;;;;;5038308;28;20510;-67
2023/04/08 03:42:02;;;;;;;34.27;17.17;;;5.50;99.90;;;;;;5052651;28;20206;-69
2023/04/08 03:44:27;;;;;;;38.03;19.47;;;5.60;99.90;;;;;;5040909;28;20338;-68
2023/04/08 03:46:53;;;;;;;33.97;18.57;;;5.50;99.90;;;;;;5045773;28;20483;-68
2023/04/08 03:49:19;;;;;;;41.00;20.40;;;5.50;99.90;;;;;;5056531;28;20174;-68
2023/04/08 03:51:44;;;;;;;38.13;19.53;;;5.60;99.90;;;;;;5043005;28;20592;-68
2023/04/08 03:54:10;;;;;;;31.00;17.53;;;5.50;99.90;;;;;;5046551;28;20228;-68
2023/04/08 03:56:35;;;;;;;31.63;16.80;;;5.50;99.90;;;;;;5050119;28;20585;-67
2023/04/08 03:59:01;;;;;;;35.87;18.97;;;5.50;99.90;;;;;;5052413;28;20183;-68
2023/04/08 04:01:27;;;;;;;32.97;16.27;;;5.60;99.90;;;;;;5048319;28;20193;-68
2023/04/08 04:03:53;;;;;;;37.67;19.50;;;5.60;99.90;;;;;;5050176;28;20282;-68
2023/04/08 04:06:19;;;;;;;32.40;18.93;;;5.60;99.90;;;;;;5047161;28;20579;-68
2023/04/08 04:08:45;;;;;;;40.37;19.10;;;5.60;99.90;;;;;;5049477;28;20677;-68
2023/04/08 04:11:10;;;;;;;41.73;18.37;;;5.60;99.90;;;;;;5045817;28;20202;-68
2023/04/08 04:13:36;;;;;;;32.87;17.70;;;5.60;99.90;;;;;;5045147;28;20449;-68
2023/04/08 04:16:02;;;;;;;38.30;19.40;;;5.60;99.90;;;;;;5048957;28;20181;-69
2023/04/08 04:18:28;;;;;;;36.13;19.20;;;5.60;99.90;;;;;;5047076;28;20265;-68
2023/04/08 04:20:53;;;;;;;38.37;15.47;;;5.60;99.90;;;;;;5047600;28;20201;-68
2023/04/08 04:23:19;;;;;;;36.37;19.23;;;5.60;99.90;;;;;;5046653;28;20244;-68
2023/04/08 04:25:44;;;;;;;30.90;17.53;;;5.60;99.90;;;;;;5043896;28;20206;-69
2023/04/08 04:28:10;;;;;;;33.43;18.73;;;5.60;99.90;;;;;;5045644;28;20182;-68
2023/04/08 04:30:39;;;;;;;38.27;20.07;;;5.60;99.90;;;;;;5045514;28;20197;-69
2023/04/08 04:33:05;;;;;;;30.17;17.07;;;5.60;99.90;;;;;;5050818;28;20629;-68
2023/04/08 04:35:31;;;;;;;38.43;18.23;;;5.60;99.90;;;;;;5045749;28;20412;-68
2023/04/08 04:37:57;;;;;;;36.10;20.03;;;5.60;99.90;;;;;;5046155;28;21148;-67
2023/04/08 04:40:23;;;;;;;32.10;17.67;;;5.70;99.90;;;;;;5047138;28;20551;-66
2023/04/08 04:42:48;;;;;;;32.23;18.40;;;5.60;99.90;;;;;;5050353;28;20190;-68
2023/04/08 04:45:14;;;;;;;39.47;18.60;;;5.60;99.90;;;;;;5045780;28;20831;-67
2023/04/08 04:47:40;;;;;;;33.80;17.50;;;5.60;99.90;;;;;;5045302;28;20171;-68
2023/04/08 04:50:06;;;;;;;35.40;17.47;;;5.60;99.90;;;;;;5039130;28;20181;-66
2023/04/08 04:52:31;;;;;;;31.20;18.10;;;5.60;99.90;;;;;;5043514;28;20261;-68
2023/04/08 04:54:57;;;;;;;39.97;21.17;;;5.60;99.90;;;;;;5048693;28;20445;-68
2023/04/08 04:57:23;;;;;;;37.47;20.00;;;5.60;99.90;;;;;;5046632;28;20511;-69
2023/04/08 04:59:49;;;;;;;44.17;19.87;;;5.60;99.90;;;;;;5049204;28;20406;-69
2023/04/08 05:02:15;;;;;;;31.83;18.03;;;5.60;99.90;;;;;;5054812;28;20194;-69
2023/04/08 05:04:40;;;;;;;30.40;19.17;;;5.60;99.90;;;;;;5050517;28;20269;-68
2023/04/08 05:07:06;;;;;;;38.73;17.00;;;5.60;99.90;;;;;;5047943;28;20429;-68
2023/04/08 05:09:32;;;;;;;38.53;17.47;;;5.60;99.90;;;;;;5051012;28;20171;-69
2023/04/08 05:11:57;;;;;;;34.30;17.30;;;5.60;99.90;;;;;;5049463;28;20743;-68
2023/04/08 05:14:23;;;;;;;37.33;17.53;;;5.60;99.90;;;;;;5057343;28;20174;-68
2023/04/08 05:16:49;;;;;;;41.53;19.07;;;5.60;99.90;;;;;;5056730;28;20163;-68
2023/04/08 05:19:14;;;;;;;45.57;19.30;;;5.60;99.90;;;;;;5047892;28;20201;-67
2023/04/08 05:21:40;;;;;;;33.47;19.30;;;5.60;99.90;;;;;;5055853;28;20202;-69
2023/04/08 05:24:06;;;;;;;36.40;19.63;;;5.70;99.90;;;;;;5051641;28;20182;-68
2023/04/08 05:26:31;;;;;;;33.93;19.13;;;5.70;99.90;;;;;;5051416;28;20409;-68
2023/04/08 05:28:57;;;;;;;38.97;20.53;;;5.70;99.90;;;;;;5047272;28;20175;-68
2023/04/08 05:31:23;;;;;;;43.33;20.20;;;5.70;99.90;;;;;;5057232;28;20213;-67
2023/04/08 05:33:49;;;;;;;43.97;18.33;;;5.70;99.90;;;;;;5056488;28;20179;-68
2023/04/08 05:36:15;;;;;;;32.53;18.40;;;5.70;99.90;;;;;;5051985;28;20777;-69
2023/04/08 05:38:43;;;;;;;40.10;19.53;;;5.80;99.90;;;;;;5056757;28;20180;-70
2023/04/08 05:41:09;;;;;;;35.97;19.00;;;5.80;99.90;;;;;;5048761;28;20187;-68
2023/04/08 05:43:35;;;;;;;38.73;20.33;;;5.80;99.90;;;;;;5055128;28;20499;-69
2023/04/08 05:46:08;;;;;;;35.73;18.90;;;5.80;99.90;;;;;;5047328;28;20459;-68
2023/04/08 05:48:34;;;;;;;42.13;20.07;;;5.80;99.90;;;;;;5044096;28;20433;-69
2023/04/08 05:51:00;;;;;;;42.40;19.30;;;5.80;99.90;;;;;;5057918;28;20457;-68
2023/04/08 05:53:25;;;;;;;40.33;22.63;;;5.80;99.90;;;;;;5051076;28;20441;-68
2023/04/08 05:55:51;;;;;;;32.97;20.87;;;5.80;99.90;;;;;;5056385;28;20546;-69
2023/04/08 05:58:17;;;;;;;38.43;19.60;;;5.90;99.90;;;;;;5051639;28;20174;-69
2023/04/08 06:00:42;;;;;;;31.10;18.10;;;5.90;99.90;;;;;;5053501;28;20178;-68
2023/04/08 06:03:08;;;;;;;35.30;19.73;;;5.90;99.90;;;;;;5052989;28;20195;-69
2023/04/08 06:05:33;;;;;;;39.77;19.63;;;5.90;99.90;;;;;;5049029;28;20200;-69
2023/04/08 06:07:59;;;;;;;33.47;18.77;;;5.90;99.90;;;;;;5051652;28;20175;-69
2023/04/08 06:10:25;;;;;;;39.10;20.00;;;5.90;99.90;;;;;;5045936;28;20269;-68
2023/04/08 06:12:50;;;;;;;37.70;19.03;;;6.00;99.90;;;;;;5048298;28;20195;-68
2023/04/08 06:15:16;;;;;;;39.57;21.60;;;6.00;99.90;;;;;;5050772;28;20170;-68
2023/04/08 06:17:42;;;;;;;41.77;19.77;;;6.00;99.90;;;;;;5051447;28;20171;-69
2023/04/08 06:20:11;;;;;;;36.60;21.87;;;6.00;99.90;;;;;;5052651;28;20996;-69
2023/04/08 06:22:37;;;;;;;39.23;20.20;;;6.00;99.90;;;;;;5042346;28;20210;-68
2023/04/08 06:25:03;;;;;;;44.03;22.03;;;6.00;99.90;;;;;;5047480;28;20417;-68
2023/04/08 06:27:28;;;;;;;37.70;18.30;;;6.10;99.90;;;;;;5047495;28;20405;-67
2023/04/08 06:29:54;;;;;;;39.53;19.70;;;6.10;99.90;;;;;;5048299;28;20402;-68
2023/04/08 06:32:21;;;;;;;44.77;22.17;;;6.10;99.90;;;;;;5053042;28;20210;-69
2023/04/08 06:34:47;;;;;;;43.00;23.03;;;6.20;99.90;;;;;;5046906;28;20227;-69
2023/04/08 06:37:12;;;;;;;36.83;21.37;;;6.30;99.90;;;;;;5052816;28;20424;-69
2023/04/08 06:39:38;;;;;;;41.00;20.57;;;6.30;99.90;;;;;;5048405;28;20413;-69
2023/04/08 06:42:04;;;;;;;36.43;19.13;;;6.30;99.90;;;;;;5048152;28;20202;-68
2023/04/08 06:44:29;;;;;;;41.93;21.20;;;6.30;99.90;;;;;;5050158;28;20179;-68
2023/04/08 06:46:55;;;;;;;39.03;19.87;;;6.40;99.90;;;;;;5043509;28;20178;-68
2023/04/08 06:49:21;;;;;;;33.77;21.60;;;6.40;99.90;;;;;;5047625;28;20179;-69
2023/04/08 06:51:46;;;;;;;47.77;21.50;;;6.40;99.90;;;;;;5040830;28;20310;-68
2023/04/08 06:54:12;;;;;;;35.87;18.70;;;6.50;99.90;;;;;;5047832;28;20175;-68
2023/04/08 06:56:37;;;;;;;45.70;21.17;;;6.60;99.90;;;;;;5048744;28;20253;-69
2023/04/08 06:59:03;;;;;;;39.37;20.13;;;6.60;99.90;;;;;;5051625;28;20581;-68
2023/04/08 07:01:29;;;;;;;49.10;22.93;;;6.70;99.90;;;;;;5051308;28;20542;-69
2023/04/08 07:03:55;;;;;;;36.70;19.40;;;6.80;99.90;;;;;;5046324;28;20251;-68
2023/04/08 07:06:21;;;;;;;42.30;20.50;;;6.80;99.90;;;;;;5046891;28;20421;-68
2023/04/08 07:08:46;;;;;;;38.93;20.63;;;6.80;99.90;;;;;;5046718;28;20413;-68
2023/04/08 07:11:12;;;;;;;39.90;19.50;;;6.90;99.90;;;;;;5047193;28;20281;-68
2023/04/08 07:13:38;;;;;;;44.37;21.23;;;7.00;99.90;;;;;;5040995;28;20191;-67
2023/04/08 07:16:03;;;;;;;32.70;19.27;;;7.10;99.90;;;;;;5046401;28;20616;-69
2023/04/08 07:18:29;;;;;;;35.57;19.00;;;7.10;99.90;;;;;;5046293;28;20509;-70
2023/04/08 07:20:55;;;;;;;39.53;21.47;;;7.10;99.90;;;;;;5046388;28;20261;-68
2023/04/08 07:23:21;;;;;;;40.00;22.07;;;7.30;99.90;;;;;;5047692;28;20209;-68
2023/04/08 07:25:47;;;;;;;42.43;19.53;;;7.40;99.90;;;;;;5046081;28;20175;-67
2023/04/08 07:28:12;;;;;;;38.87;19.60;;;7.50;99.90;;;;;;5046551;28;20171;-68
2023/04/08 07:30:38;;;;;;;42.57;20.17;;;7.40;99.90;;;;;;5046106;28;20499;-68
2023/04/08 07:33:04;;;;;;;34.60;18.67;;;7.40;99.90;;;;;;5051243;28;20309;-68
2023/04/08 07:35:30;;;;;;;30.47;19.93;;;7.50;99.90;;;;;;5050792;28;20241;-68
2023/04/08 07:37:56;;;;;;;35.93;17.90;;;7.70;99.90;;;;;;5050739;28;20167;-68
2023/04/08 07:40:22;;;;;;;32.97;18.43;;;7.80;99.90;;;;;;5046107;28;20458;-68
2023/04/08 07:42:48;;;;;;;30.13;17.40;;;7.90;99.90;;;;;;5044990;28;20869;-67
2023/04/08 07:45:14;;;;;;;31.63;18.13;;;7.80;99.90;;;;;;5046634;28;20920;-67
2023/04/08 07:47:40;;;;;;;34.87;20.40;;;7.70;99.90;;;;;;5045961;28;20265;-68
2023/04/08 07:50:06;;;;;;;35.47;17.40;;;7.70;99.90;;;;;;5040458;28;20959;-67
2023/04/08 07:52:32;;;;;;;34.17;18.73;;;7.70;99.90;;;;;;5039391;28;20472;-67
2023/04/08 07:54:58;;;;;;;35.83;18.60;;;7.70;99.90;;;;;;5052939;28;20413;-68
2023/04/08 07:57:25;;;;;;;34.20;19.60;;;7.60;99.90;;;;;;5050241;28;20488;-67
2023/04/08 07:59:50;;;;;;;40.60;17.80;;;7.50;99.90;;;;;;5049653;28;20175;-68
2023/04/08 08:02:16;;;;;;;33.23;18.13;;;7.60;99.90;;;;;;5045526;28;20434;-67
2023/04/08 08:04:41;;;;;;;34.23;18.40;;;7.80;99.90;;;;;;5052892;28;20280;-67
2023/04/08 08:07:07;;;;;;;37.97;19.37;;;7.90;99.90;;;;;;5045491;28;20183;-68
2023/04/08 08:09:33;;;;;;;35.43;18.30;;;7.90;99.90;;;;;;5052014;28;20640;-67
2023/04/08 08:11:58;;;;;;;39.83;19.20;;;8.00;99.90;;;;;;5046136;28;20249;-68
2023/04/08 08:14:25;;;;;;;29.73;16.90;;;8.20;99.90;;;;;;5045874;28;20182;-67
2023/04/08 08:16:52;;;;;;;41.70;20.00;;;8.30;99.90;;;;;;5053310;28;20240;-68
2023/04/08 08:19:21;;;;;;;40.80;22.17;;;8.50;99.90;;;;;;5038538;28;20491;-68
2023/04/08 08:21:47;;;;;;;33.23;17.60;;;8.70;99.90;;;;;;5045339;28;20447;-68
2023/04/08 08:24:12;;;;;;;28.40;18.07;;;8.50;99.90;;;;;;5045840;28;20453;-68
2023/04/08 08:26:38;;;;;;;32.23;19.20;;;8.70;99.90;;;;;;5045566;28;20222;-65
2023/04/08 08:29:05;;;;;;;32.73;16.73;;;8.60;99.90;;;;;;5045485;28;20213;-67
2023/04/08 08:31:30;;;;;;;38.97;19.27;;;8.70;99.90;;;;;;5045240;28;20276;-67
2023/04/08 08:33:56;;;;;;;27.67;17.30;;;8.70;99.90;;;;;;5049299;28;20416;-68
2023/04/08 08:36:22;;;;;;;34.87;20.30;;;8.80;99.90;;;;;;5049468;28;20207;-67
2023/04/08 08:38:47;;;;;;;38.23;18.93;;;9.00;99.90;;;;;;5056539;28;20271;-68
2023/04/08 08:41:14;;;;;;;31.97;16.30;;;9.00;99.90;;;;;;5050699;28;20190;-67
2023/04/08 08:43:39;;;;;;;31.03;16.30;;;8.90;99.90;;;;;;5049354;28;20200;-67
2023/04/08 08:46:09;;;;;;;37.23;18.67;;;9.00;99.90;;;;;;5048425;28;20423;-67
2023/04/08 08:48:37;;;;;;;35.20;17.70;;;9.00;99.90;;;;;;5048425;28;20271;-67
2023/04/08 08:51:08;;;;;;;30.73;17.23;;;8.80;99.90;;;;;;5057061;28;20464;-67
2023/04/08 08:53:34;;;;;;;28.57;17.10;;;8.80;99.90;;;;;;5044964;28;20425;-67
2023/04/08 08:55:59;;;;;;;34.40;18.40;;;8.80;99.90;;;;;;5061982;28;20421;-67
2023/04/08 08:58:26;;;;;;;28.43;16.70;;;9.10;99.90;;;;;;5056729;28;20180;-66
2023/04/08 09:00:52;;;;;;;27.83;15.57;;;9.20;99.90;;;;;;5051571;28;20684;-68
2023/04/08 09:03:28;;;;;;;29.20;16.53;;;9.20;99.90;;;;;;5061467;28;20442;-67
2023/04/08 09:05:59;;;;;;;35.33;17.33;;;9.20;99.90;;;;;;5058828;28;20264;-68
2023/04/08 09:08:26;;;;;;;28.53;16.97;;;9.00;99.90;;;;;;5049395;28;20430;-68
2023/04/08 09:10:52;;;;;;;33.67;19.27;;;9.10;99.90;;;;;;5055824;28;20449;-66
2023/04/08 09:13:18;;;;;;;30.33;16.80;;;9.10;99.90;;;;;;5049063;28;20524;-67
2023/04/08 09:16:15;;;;;;;32.40;17.67;;;9.00;99.90;;;;;;5044835;28;20524;-68
2023/04/08 09:18:43;;;;;;;25.40;16.73;;;9.20;99.90;;;;;;5033993;28;20190;-68
2023/04/08 09:21:10;;;;;;;36.10;19.23;;;9.30;99.90;;;;;;5051542;28;20880;-68
2023/04/08 09:23:46;;;;;;;27.20;16.50;;;9.40;99.90;;;;;;5048296;28;20778;-67
2023/04/08 09:26:15;;;;;;;28.93;18.27;;;9.70;99.90;;;;;;5048480;28;20428;-68
2023/04/08 09:28:42;;;;;;;28.27;17.23;;;9.70;99.90;;;;;;5049042;28;20506;-67
2023/04/08 09:31:22;;;;;;;33.70;16.00;;;9.60;99.90;;;;;;5048385;28;20486;-68
2023/04/08 09:33:49;;;;;;;26.83;17.00;;;9.60;99.90;;;;;;5043533;28;20413;-68
2023/04/08 09:36:16;;;;;;;26.47;15.13;;;9.70;99.90;;;;;;5048623;28;20841;-67
2023/04/08 09:38:45;;;;;;;29.03;15.67;;;9.80;99.90;;;;;;5048637;28;20458;-68
2023/04/08 09:41:16;;;;;;;26.03;14.27;;;9.70;99.90;;;;;;5049564;28;20817;-67
2023/04/08 09:43:50;;;;;;;29.70;18.77;;;9.70;99.90;;;;;;5053496;28;20847;-66
2023/04/08 09:46:17;;;;;;;28.40;16.50;;;9.50;99.90;;;;;;5044405;28;20438;-67
2023/04/08 09:48:51;;;;;;;27.33;17.20;;;9.50;99.90;;;;;;5048037;28;20926;-68
2023/04/08 09:51:19;;;;;;;28.53;16.47;;;9.50;99.90;;;;;;5050441;28;20469;-70
2023/04/08 09:53:54;;;;;;;28.03;16.40;;;9.80;99.90;;;;;;5048419;28;20432;-67
2023/04/08 09:56:21;;;;;;;25.03;17.07;;;9.90;99.90;;;;;;5055414;28;20413;-67
2023/04/08 09:59:08;;;;;;;27.87;16.10;;;10.10;99.90;;;;;;5047892;28;20916;-69
2023/04/08 10:01:41;;;;;;;27.67;16.00;;;10.00;99.90;;;;;;5048266;28;20417;-68
2023/04/08 10:04:16;;;;;;;24.27;16.07;;;9.90;99.90;;;;;;5048829;28;20424;-68
2023/04/08 10:06:42;;;;;;;35.83;22.00;;;9.80;99.90;;;;;;5047897;28;20413;-68
2023/04/08 10:09:09;;;;;;;26.30;18.47;;;9.80;99.90;;;;;;5051737;28;20957;-67
2023/04/08 10:11:36;;;;;;;32.10;19.30;;;9.80;99.90;;;;;;5048479;28;20309;-67
2023/04/08 10:14:02;;;;;;;30.30;16.70;;;9.90;99.90;;;;;;5048918;28;20441;-67
2023/04/08 10:16:28;;;;;;;26.90;16.43;;;10.30;99.90;;;;;;5051125;28;20424;-67
2023/04/08 10:18:55;;;;;;;26.60;15.80;;;10.70;99.90;;;;;;5047552;28;20533;-67
2023/04/08 10:21:38;;;;;;;26.93;16.23;;;11.00;99.90;;;;;;5055314;28;20416;-68
2023/04/08 10:24:10;;;;;;;26.37;15.47;;;11.10;99.90;;;;;;5043249;28;20422;-68
2023/04/08 10:26:44;;;;;;;22.67;14.00;;;11.00;99.90;;;;;;5041182;28;20414;-65
2023/04/08 10:29:28;;;;;;;24.90;16.10;;;11.10;99.90;;;;;;5048275;28;20416;-70
2023/04/08 10:31:54;;;;;;;23.07;15.73;;;11.70;99.90;;;;;;5034373;28;21046;-69
2023/04/08 10:34:23;;;;;;;22.57;15.40;;;11.70;99.90;;;;;;5048699;28;20863;-69
2023/04/08 10:36:49;;;;;;;21.17;14.83;;;11.80;99.90;;;;;;5043654;28;20474;-68
2023/04/08 10:39:16;;;;;;;20.83;13.50;;;12.10;99.90;;;;;;5046960;28;20912;-68
2023/04/08 10:41:46;;;;;;;24.30;14.10;;;11.70;99.90;;;;;;5047377;28;20203;-69
2023/04/08 10:44:18;;;;;;;21.50;13.97;;;11.80;99.90;;;;;;5053035;28;20767;-72
2023/04/08 10:46:45;;;;;;;20.70;14.00;;;11.70;99.90;;;;;;5046901;28;20468;-70
2023/04/08 10:49:11;;;;;;;18.43;12.30;;;11.90;99.90;;;;;;5047286;28;20529;-68
2023/04/08 10:51:38;;;;;;;23.03;14.13;;;12.20;99.90;;;;;;5043776;28;20543;-68
2023/04/08 10:54:08;;;;;;;24.77;14.90;;;12.10;99.90;;;;;;5051594;28;20417;-69
2023/04/08 10:56:35;;;;;;;22.93;14.80;;;12.00;99.90;;;;;;5040435;28;20838;-69
2023/04/08 10:59:00;;;;;;;21.20;13.17;;;11.70;99.90;;;;;;5050548;28;20422;-69
2023/04/08 11:01:27;;;;;;;20.90;14.17;;;11.60;99.90;;;;;;5050812;28;20456;-69
2023/04/08 11:03:52;;;;;;;18.90;13.23;;;11.80;99.90;;;;;;5049979;28;20261;-70
2023/04/08 11:06:18;;;;;;;15.77;11.87;;;12.20;99.90;;;;;;5052153;28;20599;-70
2023/04/08 11:08:44;;;;;;;17.47;11.17;;;12.30;99.90;;;;;;5046014;28;20263;-68
2023/04/08 11:11:10;;;;;;;17.43;11.40;;;12.20;99.90;;;;;;5051893;28;20199;-70
2023/04/08 11:13:45;;;;;;;17.97;12.03;;;12.20;99.90;;;;;;5049589;28;20441;-67
2023/04/08 11:16:11;;;;;;;19.57;13.07;;;12.10;99.90;;;;;;5047859;28;20506;-70
2023/04/08 11:18:38;;;;;;;17.90;12.77;;;12.10;99.90;;;;;;5044283;28;20430;-67
2023/04/08 11:21:11;;;;;;;16.43;10.33;;;12.30;99.90;;;;;;5041461;28;20457;-67
2023/04/08 11:23:37;;;;;;;20.77;13.70;;;12.10;99.90;;;;;;5046788;28;20433;-67
2023/04/08 11:26:03;;;;;;;21.53;13.50;;;11.90;99.90;;;;;;5046166;28;20414;-68
2023/04/08 11:28:29;;;;;;;22.13;15.23;;;12.00;99.90;;;;;;5046180;28;20202;-68
2023/04/08 11:30:56;;;;;;;15.47;12.30;;;12.00;99.90;;;;;;5049050;28;20463;-69
2023/04/08 11:33:25;;;;;;;22.77;13.87;;;12.10;99.90;;;;;;5046186;28;20568;-68
2023/04/08 11:35:51;;;;;;;20.30;13.60;;;12.00;99.90;;;;;;5038298;28;20804;-67
2023/04/08 11:38:20;;;;;;;16.33;12.63;;;12.00;99.90;;;;;;5052157;28;20412;-68
2023/04/08 11:40:57;;;;;;;19.77;13.97;;;12.20;99.90;;;;;;5046185;28;20194;-67
2023/04/08 11:43:24;;;;;;;22.30;12.90;;;12.10;99.90;;;;;;5048881;28;20435;-68
2023/04/08 11:45:49;;;;;;;24.10;13.63;;;12.20;99.90;;;;;;5046167;28;20412;-68
2023/04/08 11:48:16;;;;;;;18.70;13.93;;;12.10;99.90;;;;;;5044751;28;20931;-69
2023/04/08 11:50:42;;;;;;;20.70;13.37;;;12.10;99.90;;;;;;5053413;28;20207;-69
2023/04/08 11:53:21;;;;;;;20.50;14.50;;;12.00;99.90;;;;;;5045861;28;20441;-69
2023/04/08 11:55:47;;;;;;;21.33;13.73;;;11.90;99.90;;;;;;5045755;28;21031;-68
2023/04/08 11:58:13;;;;;;;20.60;14.13;;;11.80;99.90;;;;;;5049267;28;20451;-68
2023/04/08 12:00:39;;;;;;;23.83;14.60;;;11.60;99.90;;;;;;5051325;28;20861;-68
2023/04/08 12:03:06;;;;;;;18.60;12.23;;;11.80;99.90;;;;;;5046088;28;20444;-67
2023/04/08 12:05:31;;;;;;;23.27;14.60;;;11.80;99.90;;;;;;5046344;28;21006;-68
2023/04/08 12:07:57;;;;;;;17.00;13.13;;;11.90;99.90;;;;;;5049665;28;20452;-68
2023/04/08 12:10:24;;;;;;;19.53;13.87;;;11.90;99.90;;;;;;5046060;28;20183;-68
2023/04/08 12:12:50;;;;;;;25.60;14.57;;;12.00;99.90;;;;;;5042724;28;20202;-67
2023/04/08 12:15:16;;;;;;;20.33;13.37;;;12.10;99.90;;;;;;5042069;28;20433;-69
2023/04/08 12:17:42;;;;;;;19.40;12.63;;;12.40;99.90;;;;;;5056076;28;20409;-69
2023/04/08 12:20:08;;;;;;;16.07;11.60;;;12.40;99.90;;;;;;5048913;28;20417;-68
2023/04/08 12:22:34;;;;;;;14.93;11.53;;;12.50;99.90;;;;;;5052511;28;20441;-69
2023/04/08 12:25:02;;;;;;;16.33;11.97;;;12.70;99.90;;;;;;5045999;28;20466;-69
2023/04/08 12:27:27;;;;;;;17.37;10.70;;;12.70;99.90;;;;;;5045382;28;20186;-69
2023/04/08 12:29:54;;;;;;;15.80;12.07;;;12.60;99.90;;;;;;5044259;28;20927;-69
2023/04/08 12:32:20;;;;;;;14.33;11.00;;;12.90;99.90;;;;;;5044960;28;20222;-69
2023/04/08 12:34:46;;;;;;;16.83;10.67;;;12.90;99.90;;;;;;5053584;28;20413;-68